Terminal Aerodrome Forecast
Issued by NWS

Home | Current Version | Previous Version | Text Only | Print | Product List | Glossary On
Versions: 1 2 3 4 5 6 7 8 9 10 11 12 13 14 15 16 17 18 19 20 21 22
886
FTUS41 KCAR 201440 AAC
TAFFVE
TAF AMD
KFVE 201440Z 2015/2112 33005KT P6SM OVC018
     FM201700 VRB03KT P6SM OVC050
     FM210400 15005KT P6SM OVC025=

USA.gov is the U.S. government's official web portal to all federal, state and local government web resources and services.